19:34
Airports
History
Links
Donate
Help keep this website running!
PayPal
Bitcoin
Information on this page is community maintained and may be outdated or inaccurate and is intended for reference only or PC simulator navigating.
Always use approved charts for navigating.
LIBP
PESCARAEdited 07-Mar-2012
PESCARA (LIBP)
Pescara, Abruzzi, Italy (65128)
(C)
Lat/Lng:42° 25' 52.47" N / 14° 10' 58.62" E
42.431242 / 14.182951
Elevation:48'ft 15mMSL
ID / ICAO:LIBP
Runways:1
Longest:(04-22) 2,414.0m 7,920ft Asphalt
Controlled:Yes
Beacon:White-Green
Distance To
Airport ID:
Airport Radio Frequencies
Tower: 118.45
Approach: 120.05
Nearby VORs <50NM
Nearby NDBs
METARUpdated 05-27-17 18:50 GMT
Altimeter: 30.09
Visibility: 6.2 statute miles
Wind: 3 knots (220°)
Temp: 21°c 70°f
Humidity: 52.8%

METAR: LIBP 271850Z 22003KT 190V270 CAVOK 21/11 Q1019

(Powered by phpweather)
Runway 04 / 22
Dimensions:2414 x 45.1m 7920' x 148'ft
Surface:Asphalt
Edge Lights:High intensity
Runway 04 [A]Runway 22 [B]
Heading:037°TH 217°TH
Lat:
Lng:
42° 25' 21.41"N
14° 10' 26.38"E
42° 26' 23.53"N
14° 11' 30.87"E
ALS:Calvert
TDZ:Yes, lighted
User Notes and Comments
Google Map
Nearby Airports
(C) Aeroporto dei Parchi 44.7 NM
LIAP W 265°
4 Rieti 68.0 NM
LIQN (WX) W 269°
(U) Aquino 69.6 NM
LIAQ SSW 200°
4 Frosinone 70.7 NM
LIRH (WX) SW 219°
(C) GUIDONIA 80.0 NM
LIRG (WX) WSW 247°
4 Foligno 82.4 NM
LIAF WNW 294°
(C) LATINA 89.7 NM
LIRL (WX) SW 226°
VFR Chart
Flight Planning at SkyVector.com